createdAt,value
2023-02-19T00:02:05.157Z,10.10
2023-02-19T00:04:36.916Z,10.20
2023-02-19T00:07:08.731Z,10.10
2023-02-19T00:09:40.532Z,10.20
2023-02-19T00:12:12.452Z,10.10
2023-02-19T00:14:44.270Z,10.20
2023-02-19T00:17:15.987Z,10.20
2023-02-19T00:19:47.751Z,10.10
2023-02-19T00:22:19.438Z,10.20
2023-02-19T00:24:51.217Z,10.20
2023-02-19T00:27:22.894Z,10.20
2023-02-19T00:29:54.584Z,10.20
2023-02-19T00:32:26.496Z,10.20
2023-02-19T00:34:58.218Z,10.20
2023-02-19T00:37:30.149Z,10.10
2023-02-19T00:40:01.851Z,10.20
2023-02-19T00:42:33.632Z,10.20
2023-02-19T00:45:05.902Z,10.20
2023-02-19T00:47:37.645Z,10.10
2023-02-19T00:50:09.707Z,10.10
2023-02-19T00:52:41.545Z,10.10
2023-02-19T00:55:13.312Z,10.10
2023-02-19T00:57:45.007Z,10.00
2023-02-19T01:00:16.750Z,10.00
2023-02-19T01:02:48.468Z,10.00
2023-02-19T01:05:20.173Z,10.00
2023-02-19T01:07:51.860Z,10.00
2023-02-19T01:10:32.344Z,9.90
2023-02-19T01:13:04.162Z,10.00
2023-02-19T01:15:35.962Z,10.00
2023-02-19T01:18:08.418Z,10.00
2023-02-19T01:20:44.527Z,10.00
2023-02-19T01:23:16.433Z,10.00
2023-02-19T01:25:48.469Z,10.00
2023-02-19T01:28:20.248Z,9.90
2023-02-19T01:30:52.044Z,9.90
2023-02-19T01:33:23.707Z,9.90
2023-02-19T01:35:55.613Z,9.90
2023-02-19T01:38:27.993Z,9.90
2023-02-19T01:41:05.534Z,9.90
2023-02-19T01:43:57.424Z,9.90
2023-02-19T01:46:40.556Z,9.80
2023-02-19T01:49:23.107Z,9.80
2023-02-19T01:51:59.242Z,9.80
2023-02-19T01:54:34.599Z,9.80
2023-02-19T01:57:11.449Z,9.70
2023-02-19T01:59:43.736Z,9.70
2023-02-19T02:02:15.674Z,9.70
2023-02-19T02:04:48.262Z,9.70
2023-02-19T02:07:39.038Z,9.80
2023-02-19T02:10:21.066Z,9.70
2023-02-19T02:12:57.611Z,9.70
2023-02-19T02:15:37.923Z,9.70
2023-02-19T02:18:37.866Z,9.70
2023-02-19T02:21:47.005Z,9.70
2023-02-19T02:24:56.140Z,9.80
2023-02-19T02:27:38.526Z,9.70
2023-02-19T02:30:16.007Z,9.70
2023-02-19T02:33:06.976Z,9.70
2023-02-19T02:36:05.979Z,9.70
2023-02-19T02:38:42.046Z,9.70
2023-02-19T02:41:15.449Z,9.60
2023-02-19T02:43:47.156Z,9.60
2023-02-19T02:46:24.541Z,9.50
2023-02-19T02:48:58.400Z,9.50
2023-02-19T02:51:35.195Z,9.40
2023-02-19T02:54:33.035Z,9.40
2023-02-19T02:57:06.877Z,9.40
2023-02-19T02:59:40.271Z,9.40
2023-02-19T03:02:32.527Z,9.40
2023-02-19T03:05:32.168Z,9.40
2023-02-19T03:08:07.495Z,9.40
2023-02-19T03:10:47.796Z,9.40
2023-02-19T03:13:49.457Z,9.40
2023-02-19T03:16:46.916Z,9.40
2023-02-19T03:19:22.114Z,9.40
2023-02-19T03:22:16.598Z,9.40
2023-02-19T03:25:20.977Z,9.40
2023-02-19T03:27:54.389Z,9.40
2023-02-19T03:30:35.455Z,9.40
2023-02-19T03:33:16.930Z,9.40
2023-02-19T03:35:58.076Z,9.30
2023-02-19T03:38:57.842Z,9.20
2023-02-19T03:42:04.183Z,9.20
2023-02-19T03:44:55.951Z,9.00
2023-02-19T03:47:32.527Z,9.00
2023-02-19T03:50:17.369Z,9.00
2023-02-19T03:52:58.003Z,9.00
2023-02-19T03:55:53.130Z,9.00
2023-02-19T03:58:28.497Z,9.00
2023-02-19T04:01:13.743Z,9.00
2023-02-19T04:04:15.091Z,8.90
2023-02-19T04:06:57.004Z,8.90
2023-02-19T04:09:38.260Z,9.00
2023-02-19T04:12:12.432Z,9.00
2023-02-19T04:15:06.493Z,9.10
2023-02-19T04:17:45.969Z,9.00
2023-02-19T04:20:20.021Z,9.00
2023-02-19T04:22:52.169Z,9.00
2023-02-19T04:25:26.649Z,9.10
2023-02-19T04:27:58.806Z,9.10
2023-02-19T04:30:30.607Z,9.10
2023-02-19T04:33:02.384Z,9.10
2023-02-19T04:35:34.104Z,9.10
2023-02-19T04:38:05.928Z,9.10
2023-02-19T04:40:37.650Z,9.00
2023-02-19T04:43:09.380Z,9.00
2023-02-19T04:45:41.171Z,9.00
2023-02-19T04:48:13.030Z,9.10
2023-02-19T04:50:44.732Z,9.10
2023-02-19T04:53:16.591Z,9.10
2023-02-19T04:55:48.521Z,9.10
2023-02-19T04:58:21.207Z,9.10
2023-02-19T05:00:53.408Z,9.10
2023-02-19T05:03:25.091Z,9.20
2023-02-19T05:05:56.786Z,9.10
2023-02-19T05:08:28.444Z,9.10
2023-02-19T05:11:01.242Z,9.10
2023-02-19T05:13:33.613Z,9.00
2023-02-19T05:16:08.532Z,9.00
2023-02-19T05:18:41.331Z,9.00
2023-02-19T05:21:13.981Z,9.00
2023-02-19T05:23:45.712Z,9.00
2023-02-19T05:26:20.669Z,9.00
2023-02-19T05:28:54.560Z,9.00
2023-02-19T05:31:26.517Z,9.00
2023-02-19T05:33:58.200Z,9.00
2023-02-19T05:36:30.104Z,9.00
2023-02-19T05:39:01.860Z,9.10
2023-02-19T05:41:33.614Z,9.10
2023-02-19T05:44:05.420Z,9.10
2023-02-19T05:46:37.206Z,9.00
2023-02-19T05:49:08.939Z,9.00
2023-02-19T05:51:40.640Z,9.00
2023-02-19T05:54:12.612Z,9.00
2023-02-19T05:56:44.320Z,9.00
2023-02-19T05:59:17.794Z,9.00
2023-02-19T06:01:51.225Z,9.00
2023-02-19T06:04:23.515Z,9.00
2023-02-19T06:06:55.427Z,8.90
2023-02-19T06:09:27.292Z,9.00
2023-02-19T06:11:59.065Z,9.00
2023-02-19T06:14:30.866Z,9.00
2023-02-19T06:17:02.553Z,9.00
2023-02-19T06:19:34.419Z,9.00
2023-02-19T06:22:06.250Z,9.00
2023-02-19T06:24:38.054Z,9.00
2023-02-19T06:27:10.061Z,8.90
2023-02-19T06:29:41.743Z,8.80
2023-02-19T06:32:13.589Z,8.80
2023-02-19T06:34:45.495Z,8.80
2023-02-19T06:37:17.153Z,8.70
2023-02-19T06:39:49.028Z,8.70
2023-02-19T06:42:20.766Z,8.70
2023-02-19T06:44:52.529Z,8.70
2023-02-19T06:47:25.549Z,8.70
2023-02-19T06:49:57.308Z,8.70
2023-02-19T06:52:29.049Z,8.70
2023-02-19T06:55:00.887Z,8.80
2023-02-19T06:57:32.600Z,8.80
2023-02-19T07:00:04.679Z,8.80
2023-02-19T07:02:36.389Z,8.80
2023-02-19T07:05:08.268Z,8.90
2023-02-19T07:07:40.101Z,8.90
2023-02-19T07:10:11.891Z,8.90
2023-02-19T07:12:43.702Z,8.90
2023-02-19T07:15:15.414Z,8.90
2023-02-19T07:17:47.177Z,8.90
2023-02-19T07:20:18.968Z,8.90
2023-02-19T07:22:50.717Z,8.90
2023-02-19T07:25:22.461Z,8.90
2023-02-19T07:27:54.172Z,8.90
2023-02-19T07:30:26.003Z,8.80
2023-02-19T07:32:57.806Z,8.80
2023-02-19T07:35:29.493Z,8.80
2023-02-19T07:38:01.280Z,8.80
2023-02-19T07:40:34.396Z,8.80
2023-02-19T07:43:06.105Z,8.80
2023-02-19T07:45:37.766Z,8.80
2023-02-19T07:48:09.516Z,8.80
2023-02-19T07:50:41.597Z,8.70
2023-02-19T07:53:13.277Z,8.60
2023-02-19T07:55:45.162Z,8.60
2023-02-19T07:58:17.459Z,8.50
2023-02-19T08:00:49.189Z,8.50
2023-02-19T08:03:21.051Z,8.40
2023-02-19T08:05:53.851Z,8.50
2023-02-19T08:08:25.729Z,8.50
2023-02-19T08:11:19.535Z,8.60
2023-02-19T08:13:52.296Z,8.60
2023-02-19T08:16:40.875Z,8.70
2023-02-19T08:19:14.177Z,8.70
2023-02-19T08:21:46.251Z,8.70
2023-02-19T08:24:18.041Z,8.70
2023-02-19T08:26:50.086Z,8.70
2023-02-19T08:29:21.795Z,8.60
2023-02-19T08:31:53.656Z,8.50
2023-02-19T08:34:25.758Z,8.40
2023-02-19T08:36:57.545Z,8.30
2023-02-19T08:39:29.203Z,8.40
2023-02-19T08:42:00.925Z,8.50
2023-02-19T08:44:33.125Z,8.50
2023-02-19T08:47:05.670Z,8.70
2023-02-19T08:49:37.345Z,8.80
2023-02-19T08:52:09.113Z,8.90
2023-02-19T08:54:40.877Z,9.00
2023-02-19T08:57:12.827Z,9.00
2023-02-19T08:59:44.552Z,9.00
2023-02-19T09:02:16.923Z,9.10
2023-02-19T09:04:48.687Z,9.20
2023-02-19T09:07:20.459Z,9.20
2023-02-19T09:09:52.283Z,9.30
2023-02-19T09:12:24.548Z,9.30
2023-02-19T09:14:56.405Z,9.50
2023-02-19T09:17:28.241Z,9.50
2023-02-19T09:19:59.964Z,9.50
2023-02-19T09:22:31.664Z,9.50
2023-02-19T09:25:03.463Z,9.40
2023-02-19T09:27:35.363Z,9.40
2023-02-19T09:30:07.775Z,9.40
2023-02-19T09:32:39.612Z,9.40
2023-02-19T09:35:11.332Z,9.40
2023-02-19T09:37:43.093Z,9.40
2023-02-19T09:40:21.258Z,9.30
2023-02-19T09:42:53.157Z,9.20
2023-02-19T09:45:26.820Z,9.20
2023-02-19T09:47:58.854Z,9.20
2023-02-19T09:50:38.322Z,9.20
2023-02-19T09:53:21.148Z,9.30
2023-02-19T09:55:53.574Z,9.30
2023-02-19T09:58:30.634Z,9.30
2023-02-19T10:01:04.997Z,9.10
2023-02-19T10:03:43.706Z,9.10
2023-02-19T10:06:23.944Z,9.00
2023-02-19T10:09:20.271Z,9.00
2023-02-19T10:11:54.409Z,9.00
2023-02-19T10:14:39.594Z,8.90
2023-02-19T10:17:25.537Z,8.80
2023-02-19T10:19:58.179Z,8.90
2023-02-19T10:22:35.796Z,8.90
2023-02-19T10:25:07.997Z,9.00
2023-02-19T10:27:39.836Z,8.90
2023-02-19T10:30:22.678Z,9.00
2023-02-19T10:33:02.527Z,9.00
2023-02-19T10:35:37.557Z,9.10
2023-02-19T10:38:17.601Z,9.20
2023-02-19T10:40:57.895Z,9.30
2023-02-19T10:43:33.921Z,9.30
2023-02-19T10:46:33.130Z,9.40
2023-02-19T10:49:16.793Z,9.40
2023-02-19T10:51:49.252Z,9.50
2023-02-19T10:54:32.722Z,9.60
2023-02-19T10:57:19.611Z,9.80
2023-02-19T11:00:16.957Z,9.90
2023-02-19T11:02:49.046Z,10.00
2023-02-19T11:05:21.270Z,10.00
2023-02-19T11:07:56.516Z,10.00
2023-02-19T11:10:39.797Z,10.00
2023-02-19T11:13:26.798Z,10.10
2023-02-19T11:15:59.777Z,10.30
2023-02-19T11:18:32.880Z,10.30
2023-02-19T11:21:07.155Z,10.30
2023-02-19T11:23:46.023Z,10.30
2023-02-19T11:26:27.296Z,10.30
2023-02-19T11:29:17.216Z,10.20
2023-02-19T11:31:49.331Z,10.00
2023-02-19T11:34:30.037Z,9.90
2023-02-19T11:37:28.088Z,9.80
2023-02-19T11:39:59.790Z,9.90
2023-02-19T11:42:42.655Z,9.90
2023-02-19T11:45:14.352Z,10.00
2023-02-19T11:48:06.300Z,10.00
2023-02-19T11:50:52.754Z,9.90
2023-02-19T11:53:32.064Z,9.90
2023-02-19T11:56:18.160Z,9.90
2023-02-19T11:59:12.795Z,9.90
2023-02-19T12:01:59.835Z,9.80
2023-02-19T12:05:03.079Z,9.80
2023-02-19T12:08:00.834Z,9.80
2023-02-19T12:11:03.345Z,9.90
2023-02-19T12:13:49.037Z,9.90
2023-02-19T12:16:20.896Z,9.90
2023-02-19T12:19:39.190Z,10.00
2023-02-19T12:22:26.508Z,10.10
2023-02-19T12:25:32.204Z,10.10
2023-02-19T12:28:17.278Z,10.20
2023-02-19T12:31:16.644Z,10.20
2023-02-19T12:34:18.812Z,10.30
2023-02-19T12:36:59.312Z,10.50
2023-02-19T12:39:47.737Z,10.50
2023-02-19T12:42:47.205Z,10.60
2023-02-19T12:45:33.183Z,10.60
2023-02-19T12:48:25.812Z,10.50
2023-02-19T12:51:08.069Z,10.70
2023-02-19T12:53:51.747Z,10.90
2023-02-19T12:56:40.627Z,11.10
2023-02-19T12:59:22.749Z,11.30
2023-02-19T13:02:15.050Z,11.40
2023-02-19T13:04:52.944Z,11.40
2023-02-19T13:07:56.356Z,11.40
2023-02-19T13:10:36.793Z,11.50
2023-02-19T13:13:34.270Z,11.60
2023-02-19T13:16:15.112Z,11.50
2023-02-19T13:19:00.480Z,11.60
2023-02-19T13:21:54.511Z,11.50
2023-02-19T13:24:33.841Z,11.50
2023-02-19T13:27:08.560Z,11.50
2023-02-19T13:29:54.151Z,11.40
2023-02-19T13:33:03.005Z,11.20
2023-02-19T13:36:08.979Z,11.10
2023-02-19T13:38:44.828Z,11.30
2023-02-19T13:42:02.953Z,11.00
2023-02-19T13:44:35.515Z,10.90
2023-02-19T13:47:46.118Z,10.70
2023-02-19T13:50:29.741Z,10.60
2023-02-19T13:53:22.238Z,10.40
2023-02-19T13:55:54.103Z,10.30
2023-02-19T13:58:56.731Z,10.20
2023-02-19T14:02:00.915Z,10.20
2023-02-19T14:04:32.583Z,10.20
2023-02-19T14:07:04.281Z,10.20
2023-02-19T14:09:41.567Z,10.30
2023-02-19T14:12:15.606Z,10.40
2023-02-19T14:14:47.713Z,10.40
2023-02-19T14:17:39.649Z,10.50
2023-02-19T14:20:17.424Z,10.50
2023-02-19T14:23:01.496Z,10.60
2023-02-19T14:25:52.786Z,10.40
2023-02-19T14:28:46.498Z,10.30
2023-02-19T14:31:29.336Z,10.40
2023-02-19T14:34:05.079Z,10.30
2023-02-19T14:36:45.161Z,10.20
2023-02-19T14:39:21.728Z,10.30
2023-02-19T14:42:00.475Z,10.40
2023-02-19T14:44:40.184Z,10.30
2023-02-19T14:47:16.700Z,10.30
2023-02-19T14:49:50.213Z,10.10
2023-02-19T14:52:40.160Z,10.20
2023-02-19T14:55:35.050Z,10.20
2023-02-19T14:58:14.919Z,10.10
2023-02-19T15:00:46.753Z,10.20
2023-02-19T15:03:33.809Z,10.20
2023-02-19T15:06:11.822Z,10.10
2023-02-19T15:08:48.431Z,10.10
2023-02-19T15:11:23.518Z,10.10
2023-02-19T15:14:04.875Z,10.10
2023-02-19T15:16:37.261Z,10.10
2023-02-19T15:19:10.276Z,10.00
2023-02-19T15:21:47.527Z,9.90
2023-02-19T15:24:19.541Z,9.90
2023-02-19T15:26:54.229Z,9.90
2023-02-19T15:29:27.619Z,9.80
2023-02-19T15:32:01.325Z,9.70
2023-02-19T15:34:33.343Z,9.70
2023-02-19T15:37:08.439Z,9.70
2023-02-19T15:39:43.962Z,9.70
2023-02-19T15:42:21.234Z,9.70
2023-02-19T15:45:16.044Z,9.70
2023-02-19T15:48:03.928Z,9.70
2023-02-19T15:50:40.205Z,9.60
2023-02-19T15:53:19.304Z,9.60
2023-02-19T15:56:06.142Z,9.60
2023-02-19T15:58:54.764Z,9.50
2023-02-19T16:01:32.644Z,9.50
2023-02-19T16:04:11.939Z,9.50
2023-02-19T16:06:54.306Z,9.60
2023-02-19T16:09:30.938Z,9.50
2023-02-19T16:12:04.576Z,9.50
2023-02-19T16:14:37.524Z,9.40
2023-02-19T16:17:16.686Z,9.30
2023-02-19T16:19:48.434Z,9.20
2023-02-19T16:22:24.308Z,9.20
2023-02-19T16:25:04.940Z,9.10
2023-02-19T16:27:41.642Z,9.10
2023-02-19T16:30:16.372Z,9.10
2023-02-19T16:32:48.124Z,9.10
2023-02-19T16:35:42.581Z,9.00
2023-02-19T16:38:18.683Z,8.90
2023-02-19T16:40:50.885Z,8.80
2023-02-19T16:43:38.133Z,8.70
2023-02-19T16:46:12.631Z,8.70
2023-02-19T16:48:44.469Z,8.50
2023-02-19T16:51:27.150Z,8.50
2023-02-19T16:53:58.973Z,8.40
2023-02-19T16:56:31.059Z,8.30
2023-02-19T16:59:03.495Z,8.20
2023-02-19T17:01:37.063Z,8.20
2023-02-19T17:04:12.650Z,8.20
2023-02-19T17:06:45.553Z,8.20
2023-02-19T17:09:17.273Z,8.20
2023-02-19T17:11:48.959Z,8.10
2023-02-19T17:14:20.760Z,8.20
2023-02-19T17:16:52.431Z,8.20
2023-02-19T17:19:24.182Z,8.20
2023-02-19T17:21:56.084Z,8.20
2023-02-19T17:24:27.894Z,8.20
2023-02-19T17:26:59.741Z,8.10
2023-02-19T17:29:33.935Z,8.20
2023-02-19T17:32:05.897Z,8.10
2023-02-19T17:34:37.686Z,8.10
2023-02-19T17:37:09.480Z,8.10
2023-02-19T17:39:41.327Z,8.10
2023-02-19T17:42:13.091Z,8.10
2023-02-19T17:44:46.723Z,8.20
2023-02-19T17:47:18.673Z,8.10
2023-02-19T17:49:50.721Z,8.10
2023-02-19T17:52:22.413Z,8.10
2023-02-19T17:54:54.130Z,8.10
2023-02-19T17:57:26.952Z,8.20
2023-02-19T17:59:58.693Z,8.10
2023-02-19T18:02:30.666Z,8.20
2023-02-19T18:05:02.351Z,8.20
2023-02-19T18:07:34.107Z,8.20
2023-02-19T18:10:06.860Z,8.10
2023-02-19T18:12:39.024Z,8.10
2023-02-19T18:15:26.763Z,8.10
2023-02-19T18:17:58.987Z,8.20
2023-02-19T18:20:31.826Z,8.20
2023-02-19T18:23:04.264Z,8.20
2023-02-19T18:25:35.949Z,8.20
2023-02-19T18:28:07.763Z,8.20
2023-02-19T18:30:39.499Z,8.20
2023-02-19T18:33:13.195Z,8.20
2023-02-19T18:35:47.418Z,8.10
2023-02-19T18:38:19.276Z,8.20
2023-02-19T18:40:51.105Z,8.10
2023-02-19T18:43:22.856Z,8.00
2023-02-19T18:45:54.654Z,8.00
2023-02-19T18:48:26.385Z,8.10
2023-02-19T18:50:58.061Z,8.10
2023-02-19T18:53:31.321Z,8.20
2023-02-19T18:56:05.290Z,8.10
2023-02-19T18:58:36.953Z,8.10
2023-02-19T19:01:09.277Z,8.00
2023-02-19T19:03:41.063Z,8.00
2023-02-19T19:06:12.853Z,8.00
2023-02-19T19:08:44.649Z,8.00
2023-02-19T19:11:16.472Z,8.00
2023-02-19T19:13:48.592Z,8.00
2023-02-19T19:16:28.397Z,7.90
2023-02-19T19:19:00.177Z,7.90
2023-02-19T19:21:31.866Z,7.90
2023-02-19T19:24:04.194Z,7.90
2023-02-19T19:26:35.976Z,7.90
2023-02-19T19:29:08.314Z,7.80
2023-02-19T19:31:40.218Z,7.80
2023-02-19T19:34:12.872Z,7.80
2023-02-19T19:36:45.467Z,7.80
2023-02-19T19:39:17.197Z,7.80
2023-02-19T19:41:54.741Z,7.90
2023-02-19T19:44:26.633Z,7.90
2023-02-19T19:46:58.316Z,7.90
2023-02-19T19:49:30.098Z,7.90
2023-02-19T19:52:01.902Z,7.90
2023-02-19T19:54:34.133Z,7.90
2023-02-19T19:57:05.948Z,8.00
2023-02-19T19:59:39.315Z,8.00
2023-02-19T20:02:12.144Z,8.00
2023-02-19T20:04:43.889Z,8.00
2023-02-19T20:07:16.099Z,8.00
2023-02-19T20:09:49.403Z,8.10
2023-02-19T20:12:21.173Z,8.20
2023-02-19T20:14:52.997Z,8.20
2023-02-19T20:17:28.867Z,8.20
2023-02-19T20:20:00.677Z,8.20
2023-02-19T20:22:32.430Z,8.20
2023-02-19T20:25:04.258Z,8.20
2023-02-19T20:27:35.992Z,8.20
2023-02-19T20:30:11.262Z,8.20
2023-02-19T20:32:43.522Z,8.20
2023-02-19T20:35:16.796Z,8.20
2023-02-19T20:37:49.433Z,8.20
2023-02-19T20:40:24.080Z,8.20
2023-02-19T20:42:56.018Z,8.20
2023-02-19T20:45:28.480Z,8.10
2023-02-19T20:48:00.336Z,8.10
2023-02-19T20:50:32.022Z,8.10
2023-02-19T20:53:03.786Z,8.20
2023-02-19T20:55:35.734Z,8.20
2023-02-19T20:58:07.499Z,8.20
2023-02-19T21:00:39.246Z,8.20
2023-02-19T21:03:11.728Z,8.20
2023-02-19T21:05:43.622Z,8.10
2023-02-19T21:08:17.225Z,8.10
2023-02-19T21:10:48.921Z,8.00
2023-02-19T21:13:20.703Z,8.00
2023-02-19T21:15:52.431Z,7.90
2023-02-19T21:18:24.272Z,7.90
2023-02-19T21:20:55.964Z,7.90
2023-02-19T21:23:27.765Z,7.80
2023-02-19T21:26:02.311Z,7.80
2023-02-19T21:28:34.012Z,7.70
2023-02-19T21:31:05.866Z,7.70
2023-02-19T21:33:37.553Z,7.70
2023-02-19T21:36:09.871Z,7.70
2023-02-19T21:38:41.914Z,7.80
2023-02-19T21:41:13.677Z,7.80
2023-02-19T21:43:45.401Z,7.90
2023-02-19T21:46:20.654Z,7.90
2023-02-19T21:48:54.045Z,7.90
2023-02-19T21:51:31.518Z,7.90
2023-02-19T21:54:04.834Z,7.90
2023-02-19T21:56:36.933Z,7.90
2023-02-19T21:59:08.934Z,7.90
2023-02-19T22:01:42.039Z,7.90
2023-02-19T22:04:16.279Z,7.80
2023-02-19T22:06:48.082Z,7.90
2023-02-19T22:09:20.239Z,7.80
2023-02-19T22:11:52.005Z,7.80
2023-02-19T22:14:23.778Z,7.80
2023-02-19T22:16:55.509Z,7.80
2023-02-19T22:19:27.224Z,7.80
2023-02-19T22:21:58.919Z,7.80
2023-02-19T22:24:30.621Z,7.80
2023-02-19T22:27:02.460Z,7.70
2023-02-19T22:29:34.641Z,7.70
2023-02-19T22:32:06.494Z,7.80
2023-02-19T22:34:40.280Z,7.70
2023-02-19T22:37:12.134Z,7.70
2023-02-19T22:39:44.852Z,7.70
2023-02-19T22:42:16.732Z,7.60
2023-02-19T22:44:48.898Z,7.60
2023-02-19T22:47:21.161Z,7.70
2023-02-19T22:49:52.964Z,7.60
2023-02-19T22:52:27.923Z,7.60
2023-02-19T22:55:02.691Z,7.60
2023-02-19T22:57:34.975Z,7.60
2023-02-19T23:00:07.627Z,7.60
2023-02-19T23:02:39.330Z,7.70
2023-02-19T23:05:11.098Z,7.70
2023-02-19T23:07:44.176Z,7.70
2023-02-19T23:10:16.105Z,7.70
2023-02-19T23:12:47.881Z,7.70
2023-02-19T23:15:19.735Z,7.80
2023-02-19T23:17:51.432Z,7.70
2023-02-19T23:20:23.165Z,7.70
2023-02-19T23:22:54.829Z,7.70
2023-02-19T23:25:26.856Z,7.70
2023-02-19T23:27:58.573Z,7.70
2023-02-19T23:30:30.456Z,7.70
2023-02-19T23:33:02.233Z,7.70
2023-02-19T23:35:33.981Z,7.70
2023-02-19T23:38:05.708Z,7.70
2023-02-19T23:40:37.499Z,7.60
2023-02-19T23:43:09.316Z,7.60
2023-02-19T23:45:41.013Z,7.70
2023-02-19T23:48:12.807Z,7.70
2023-02-19T23:50:44.779Z,7.70
2023-02-19T23:53:16.591Z,7.70
2023-02-19T23:55:48.537Z,7.70
2023-02-19T23:58:21.475Z,7.70
